createdAt,value
2022-08-09T00:01:54.072Z,3.60
2022-08-09T00:05:03.604Z,3.80
2022-08-09T00:08:31.834Z,3.65
2022-08-09T00:12:02.518Z,3.93
2022-08-09T00:15:06.755Z,3.05
2022-08-09T00:18:11.944Z,3.40
2022-08-09T00:21:16.015Z,3.92
2022-08-09T00:24:19.950Z,2.33
2022-08-09T00:27:22.561Z,3.77
2022-08-09T00:30:27.001Z,3.30
2022-08-09T00:33:48.850Z,2.97
2022-08-09T00:36:55.551Z,2.87
2022-08-09T00:40:09.511Z,3.47
2022-08-09T00:44:11.081Z,2.70
2022-08-09T00:46:56.550Z,2.47
2022-08-09T00:50:06.062Z,3.72
2022-08-09T00:53:18.299Z,3.58
2022-08-09T00:56:27.394Z,3.30
2022-08-09T00:59:41.195Z,3.20
2022-08-09T01:02:53.023Z,3.08
2022-08-09T01:06:03.902Z,3.50
2022-08-09T01:09:36.563Z,1.98
2022-08-09T01:12:49.479Z,2.22
2022-08-09T01:15:58.470Z,3.73
2022-08-09T01:19:16.984Z,3.85
2022-08-09T01:23:12.482Z,3.83
2022-08-09T01:27:01.108Z,3.55
2022-08-09T01:30:06.657Z,3.45
2022-08-09T01:33:11.822Z,2.73
2022-08-09T01:36:19.985Z,2.78
2022-08-09T01:40:23.275Z,2.78
2022-08-09T01:43:50.014Z,2.90
2022-08-09T01:46:54.515Z,2.25
2022-08-09T01:49:58.195Z,2.37
2022-08-09T01:53:01.893Z,2.37
2022-08-09T01:56:23.934Z,2.60
2022-08-09T01:59:32.339Z,2.70
2022-08-09T02:02:42.192Z,2.28
2022-08-09T02:06:03.793Z,2.57
2022-08-09T02:09:10.440Z,3.30
2022-08-09T02:12:21.364Z,2.22
2022-08-09T02:15:27.005Z,2.10
2022-08-09T02:18:49.028Z,3.40
2022-08-09T02:21:55.986Z,2.53
2022-08-09T02:25:00.872Z,1.50
2022-08-09T02:28:17.774Z,3.03
2022-08-09T02:31:22.794Z,2.37
2022-08-09T02:34:40.542Z,2.55
2022-08-09T02:37:58.618Z,1.93
2022-08-09T02:41:16.812Z,2.35
2022-08-09T02:44:30.200Z,2.22
2022-08-09T02:47:46.354Z,2.97
2022-08-09T02:50:59.434Z,2.25
2022-08-09T02:54:06.489Z,2.13
2022-08-09T02:57:14.047Z,2.90
2022-08-09T03:00:27.248Z,2.47
2022-08-09T03:03:37.161Z,2.25
2022-08-09T03:06:57.028Z,2.80
2022-08-09T03:10:03.927Z,2.27
2022-08-09T03:13:08.600Z,2.15
2022-08-09T03:16:19.333Z,1.95
2022-08-09T03:19:58.170Z,1.17
2022-08-09T03:22:57.042Z,1.40
2022-08-09T03:26:04.688Z,1.80
2022-08-09T03:29:09.781Z,2.60
2022-08-09T03:32:16.692Z,2.35
2022-08-09T03:35:24.696Z,2.45
2022-08-09T03:38:45.393Z,2.90
2022-08-09T03:41:48.767Z,2.50
2022-08-09T03:44:51.518Z,2.30
2022-08-09T03:47:54.344Z,2.70
2022-08-09T03:50:57.032Z,3.05
2022-08-09T03:54:01.944Z,2.22
2022-08-09T03:57:17.867Z,2.50
2022-08-09T04:00:22.402Z,3.00
2022-08-09T04:03:45.802Z,1.90
2022-08-09T04:06:51.557Z,2.50
2022-08-09T04:09:56.054Z,1.98
2022-08-09T04:13:11.530Z,2.20
2022-08-09T04:16:19.633Z,1.55
2022-08-09T04:19:30.339Z,1.48
2022-08-09T04:22:46.529Z,1.58
2022-08-09T04:25:51.962Z,1.45
2022-08-09T04:28:58.293Z,1.50
2022-08-09T04:32:03.299Z,1.40
2022-08-09T04:35:12.588Z,1.25
2022-08-09T04:38:15.543Z,1.90
2022-08-09T04:41:23.592Z,1.90
2022-08-09T04:44:27.141Z,2.07
2022-08-09T04:47:45.097Z,2.25
2022-08-09T04:50:53.209Z,2.30
2022-08-09T04:53:58.616Z,2.65
2022-08-09T04:57:01.283Z,3.50
2022-08-09T05:00:07.700Z,2.07
2022-08-09T05:03:30.633Z,2.95
2022-08-09T05:06:35.719Z,2.08
2022-08-09T05:09:45.452Z,3.03
2022-08-09T05:12:53.191Z,3.20
2022-08-09T05:15:56.668Z,2.33
2022-08-09T05:19:00.722Z,2.45
2022-08-09T05:22:05.384Z,3.00
2022-08-09T05:25:32.548Z,2.40
2022-08-09T05:28:35.331Z,1.50
2022-08-09T05:31:47.452Z,2.17
2022-08-09T05:34:54.806Z,2.03
2022-08-09T05:37:58.789Z,2.20
2022-08-09T05:41:01.435Z,2.50
2022-08-09T05:44:04.387Z,2.20
2022-08-09T05:47:07.968Z,2.17
2022-08-09T05:50:25.765Z,1.58
2022-08-09T05:53:37.259Z,1.85
2022-08-09T05:56:56.929Z,1.70
2022-08-09T05:59:59.587Z,1.45
2022-08-09T06:03:03.907Z,2.50
2022-08-09T06:06:14.051Z,1.62
2022-08-09T06:09:41.199Z,1.35
2022-08-09T06:12:39.668Z,1.87
2022-08-09T06:15:45.011Z,2.00
2022-08-09T06:18:49.898Z,1.50
2022-08-09T06:21:58.866Z,1.67
2022-08-09T06:25:01.915Z,2.00
2022-08-09T06:28:05.542Z,1.70
2022-08-09T06:31:09.021Z,2.12
2022-08-09T06:34:11.525Z,2.20
2022-08-09T06:37:14.350Z,1.45
2022-08-09T06:40:23.903Z,2.50
2022-08-09T06:43:27.377Z,2.50
2022-08-09T06:46:39.525Z,2.22
2022-08-09T06:50:11.917Z,2.47
2022-08-09T06:53:06.625Z,1.58
2022-08-09T06:56:09.735Z,1.98
2022-08-09T07:00:49.993Z,2.12
2022-08-09T07:02:36.775Z,2.03
2022-08-09T07:06:02.350Z,1.20
2022-08-09T07:09:04.599Z,2.58
2022-08-09T07:12:07.204Z,1.73
2022-08-09T07:16:39.460Z,2.62
2022-08-09T07:18:39.743Z,2.33
2022-08-09T07:21:57.638Z,1.80
2022-08-09T07:25:01.902Z,1.90
2022-08-09T07:28:09.566Z,1.60
2022-08-09T07:31:24.010Z,2.12
2022-08-09T07:34:26.962Z,2.53
2022-08-09T07:37:29.547Z,2.30
2022-08-09T07:41:00.486Z,2.30
2022-08-09T07:43:56.702Z,2.30
2022-08-09T07:46:59.643Z,2.40
2022-08-09T07:50:08.666Z,2.20
2022-08-09T07:53:12.621Z,2.30
2022-08-09T07:56:27.003Z,2.03
2022-08-09T07:59:34.335Z,2.42
2022-08-09T08:02:48.620Z,2.00
2022-08-09T08:05:58.165Z,2.47
2022-08-09T08:09:07.825Z,1.87
2022-08-09T08:12:27.845Z,1.52
2022-08-09T08:15:37.543Z,1.45
2022-08-09T08:18:40.787Z,1.77
2022-08-09T08:21:52.501Z,2.00
2022-08-09T08:24:57.491Z,2.33
2022-08-09T08:28:00.216Z,2.35
2022-08-09T08:31:13.984Z,2.25
2022-08-09T08:34:25.313Z,1.98
2022-08-09T08:37:41.200Z,2.62
2022-08-09T08:40:53.230Z,1.83
2022-08-09T08:44:00.566Z,2.22
2022-08-09T08:47:12.954Z,2.28
2022-08-09T08:50:18.169Z,2.30
2022-08-09T08:53:22.304Z,1.90
2022-08-09T08:56:28.468Z,2.10
2022-08-09T08:59:46.538Z,2.30
2022-08-09T09:02:52.717Z,2.35
2022-08-09T09:05:59.763Z,2.15
2022-08-09T09:09:20.788Z,2.15
2022-08-09T09:12:34.416Z,2.20
2022-08-09T09:15:38.863Z,2.10
2022-08-09T09:18:48.076Z,2.47
2022-08-09T09:22:04.956Z,2.00
2022-08-09T09:26:02.305Z,1.73
2022-08-09T09:28:39.190Z,1.80
2022-08-09T09:32:03.947Z,2.00
2022-08-09T09:35:17.857Z,1.83
2022-08-09T09:38:27.904Z,2.00
2022-08-09T09:41:49.681Z,2.70
2022-08-09T09:44:59.127Z,1.97
2022-08-09T09:48:03.671Z,2.00
2022-08-09T09:51:07.632Z,2.40
2022-08-09T09:54:23.587Z,2.20
2022-08-09T09:58:00.542Z,2.05
2022-08-09T10:00:55.148Z,2.10
2022-08-09T10:04:04.371Z,2.30
2022-08-09T10:08:11.070Z,2.25
2022-08-09T10:11:53.774Z,2.08
2022-08-09T10:14:48.551Z,2.87
2022-08-09T10:17:56.524Z,1.90
2022-08-09T10:21:10.201Z,2.22
2022-08-09T10:24:16.034Z,2.33
2022-08-09T10:27:34.534Z,1.90
2022-08-09T10:32:07.140Z,2.22
2022-08-09T10:34:10.710Z,2.10
2022-08-09T10:37:24.989Z,2.58
2022-08-09T10:40:35.081Z,4.68
2022-08-09T10:43:46.830Z,2.15
2022-08-09T10:46:57.808Z,2.53
2022-08-09T10:50:49.206Z,1.73
2022-08-09T10:53:58.487Z,2.00
2022-08-09T10:57:15.821Z,2.50
2022-08-09T11:00:41.579Z,1.90
2022-08-09T11:04:27.766Z,2.10
2022-08-09T11:07:57.085Z,2.23
2022-08-09T11:10:56.342Z,1.77
2022-08-09T11:14:28.944Z,2.20
2022-08-09T11:17:34.805Z,1.90
2022-08-09T11:20:49.659Z,2.70
2022-08-09T11:23:59.498Z,1.83
2022-08-09T11:28:04.367Z,2.30
2022-08-09T11:31:52.647Z,2.15
2022-08-09T11:34:57.356Z,2.08
2022-08-09T11:38:16.350Z,1.98
2022-08-09T11:41:37.557Z,1.67
2022-08-09T11:44:46.297Z,2.17
2022-08-09T11:47:51.316Z,2.60
2022-08-09T11:53:00.573Z,2.67
2022-08-09T11:54:27.990Z,2.22
2022-08-09T11:57:47.575Z,2.27
2022-08-09T12:01:37.819Z,2.42
2022-08-09T12:04:37.531Z,2.10
2022-08-09T12:07:42.323Z,2.40
2022-08-09T12:10:53.951Z,2.58
2022-08-09T12:14:07.845Z,2.33
2022-08-09T12:17:27.584Z,2.30
2022-08-09T12:20:42.185Z,2.30
2022-08-09T12:23:58.068Z,2.58
2022-08-09T12:29:10.223Z,2.30
2022-08-09T12:30:43.704Z,1.83
2022-08-09T12:33:58.493Z,2.10
2022-08-09T12:37:22.313Z,2.08
2022-08-09T12:40:27.428Z,3.03
2022-08-09T12:44:05.929Z,2.65
2022-08-09T12:46:53.113Z,2.50
2022-08-09T12:50:14.373Z,2.42
2022-08-09T12:53:37.619Z,2.72
2022-08-09T12:56:53.774Z,2.45
2022-08-09T13:00:34.480Z,2.50
2022-08-09T13:03:53.142Z,2.07
2022-08-09T13:07:10.417Z,1.90
2022-08-09T13:10:13.370Z,2.53
2022-08-09T13:13:29.143Z,2.55
2022-08-09T13:17:04.089Z,2.30
2022-08-09T13:20:14.049Z,2.30
2022-08-09T13:24:16.966Z,2.10
2022-08-09T13:27:06.026Z,1.70
2022-08-09T13:30:50.280Z,2.10
2022-08-09T13:33:53.165Z,2.30
2022-08-09T13:36:58.483Z,2.20
2022-08-09T13:41:55.004Z,1.90
2022-08-09T13:43:35.632Z,2.60
2022-08-09T13:47:16.643Z,2.40
2022-08-09T13:50:08.722Z,1.90
2022-08-09T13:53:16.657Z,1.47
2022-08-09T13:56:19.488Z,1.48
2022-08-09T13:59:25.267Z,2.20
2022-08-09T14:02:28.391Z,2.05
2022-08-09T14:05:58.172Z,1.60
2022-08-09T14:08:54.273Z,1.63
2022-08-09T14:12:00.590Z,1.80
2022-08-09T14:16:07.193Z,1.70
2022-08-09T14:18:33.102Z,1.75
2022-08-09T14:21:35.697Z,1.58
2022-08-09T14:24:47.126Z,1.90
2022-08-09T14:27:58.796Z,1.40
2022-08-09T14:31:01.872Z,1.00
2022-08-09T14:34:08.135Z,1.42
2022-08-09T14:37:11.189Z,1.17
2022-08-09T14:40:13.872Z,1.13
2022-08-09T14:43:18.542Z,1.42
2022-08-09T14:46:58.275Z,1.00
2022-08-09T14:50:01.444Z,1.17
2022-08-09T14:53:12.052Z,1.30
2022-08-09T14:56:15.204Z,0.60
2022-08-09T14:59:17.776Z,1.40
2022-08-09T15:02:24.043Z,1.10
2022-08-09T15:05:26.633Z,1.20
2022-08-09T15:08:30.346Z,1.00
2022-08-09T15:11:33.586Z,0.83
2022-08-09T15:14:38.179Z,0.90
2022-08-09T15:17:46.082Z,0.85
2022-08-09T15:21:57.233Z,0.98
2022-08-09T15:24:19.166Z,1.30
2022-08-09T15:27:27.342Z,1.07
2022-08-09T15:30:48.699Z,1.12
2022-08-09T15:34:16.261Z,0.98
2022-08-09T15:37:37.371Z,1.23
2022-08-09T15:40:44.267Z,0.80
2022-08-09T15:43:46.926Z,0.87
2022-08-09T15:46:49.795Z,0.85
2022-08-09T15:50:00.706Z,0.85
2022-08-09T15:53:18.871Z,1.20
2022-08-09T15:56:31.269Z,0.80
2022-08-09T15:59:36.953Z,0.70
2022-08-09T16:02:40.238Z,1.00
2022-08-09T16:05:53.083Z,1.05
2022-08-09T16:09:00.985Z,0.70
2022-08-09T16:12:06.293Z,1.15
2022-08-09T16:16:04.697Z,1.17
2022-08-09T16:18:37.117Z,0.60
2022-08-09T16:21:52.065Z,1.20
2022-08-09T16:24:59.518Z,0.88
2022-08-09T16:28:04.228Z,1.10
2022-08-09T16:31:15.983Z,1.00
2022-08-09T16:34:18.891Z,1.00
2022-08-09T16:37:54.527Z,1.10
2022-08-09T16:40:49.375Z,1.00
2022-08-09T16:43:52.848Z,1.20
2022-08-09T16:47:03.825Z,0.83
2022-08-09T16:50:29.071Z,1.27
2022-08-09T16:53:32.227Z,1.10
2022-08-09T16:56:37.165Z,1.12
2022-08-09T16:59:57.516Z,1.00
2022-08-09T17:03:00.967Z,1.00
2022-08-09T17:06:29.167Z,0.95
2022-08-09T17:09:46.068Z,1.20
2022-08-09T17:12:49.746Z,1.08
2022-08-09T17:15:59.811Z,1.02
2022-08-09T17:19:05.271Z,1.03
2022-08-09T17:22:08.248Z,1.40
2022-08-09T17:25:12.521Z,1.20
2022-08-09T17:28:15.487Z,1.35
2022-08-09T17:31:20.647Z,1.40
2022-08-09T17:35:10.667Z,1.10
2022-08-09T17:38:02.401Z,0.82
2022-08-09T17:41:10.753Z,1.20
2022-08-09T17:44:42.441Z,1.40
2022-08-09T17:47:49.464Z,1.40
2022-08-09T17:50:56.385Z,0.90
2022-08-09T17:54:02.756Z,1.00
2022-08-09T17:57:07.904Z,1.40
2022-08-09T18:00:33.601Z,1.33
2022-08-09T18:03:47.362Z,1.25
2022-08-09T18:06:54.940Z,1.17
2022-08-09T18:10:04.165Z,0.90
2022-08-09T18:13:39.662Z,1.33
2022-08-09T18:16:32.692Z,1.20
2022-08-09T18:20:55.246Z,1.20
2022-08-09T18:23:04.666Z,1.00
2022-08-09T18:26:07.953Z,1.30
2022-08-09T18:30:41.261Z,1.50
2022-08-09T18:32:34.430Z,1.40
2022-08-09T18:35:59.900Z,1.40
2022-08-09T18:39:02.134Z,1.30
2022-08-09T18:42:08.789Z,1.25
2022-08-09T18:45:21.744Z,1.00
2022-08-09T18:48:34.829Z,1.40
2022-08-09T18:51:57.561Z,1.30
2022-08-09T18:55:00.962Z,1.43
2022-08-09T18:58:03.699Z,1.45
2022-08-09T19:01:07.441Z,1.45
2022-08-09T19:04:10.550Z,1.30
2022-08-09T19:07:13.372Z,1.20
2022-08-09T19:10:19.298Z,1.30
2022-08-09T19:13:38.101Z,1.17
2022-08-09T19:16:50.180Z,1.20
2022-08-09T19:19:58.601Z,0.80
2022-08-09T19:23:05.553Z,1.20
2022-08-09T19:26:11.521Z,1.30
2022-08-09T19:29:20.524Z,1.17
2022-08-09T19:32:26.599Z,1.20
2022-08-09T19:35:58.252Z,1.48
2022-08-09T19:38:55.433Z,1.40
2022-08-09T19:41:58.348Z,1.17
2022-08-09T19:45:01.266Z,1.33
2022-08-09T19:48:04.059Z,1.30
2022-08-09T19:51:07.928Z,1.15
2022-08-09T19:54:10.657Z,1.20
2022-08-09T19:57:16.564Z,1.17
2022-08-09T20:00:20.129Z,1.37
2022-08-09T20:04:10.094Z,1.35
2022-08-09T20:06:45.766Z,1.25
2022-08-09T20:09:48.951Z,1.55
2022-08-09T20:12:51.957Z,1.10
2022-08-09T20:16:36.349Z,1.17
2022-08-09T20:19:49.544Z,1.10
2022-08-09T20:22:44.716Z,1.20
2022-08-09T20:25:52.243Z,1.10
2022-08-09T20:28:56.088Z,1.23
2022-08-09T20:32:28.880Z,1.25
2022-08-09T20:35:21.857Z,1.35
2022-08-09T20:38:30.249Z,1.02
2022-08-09T20:41:40.539Z,1.40
2022-08-09T20:44:50.767Z,1.27
2022-08-09T20:48:06.861Z,1.30
2022-08-09T20:51:16.889Z,1.58
2022-08-09T20:54:22.629Z,0.90
2022-08-09T20:57:32.114Z,1.30
2022-08-09T21:00:35.874Z,1.40
2022-08-09T21:05:48.993Z,1.40
2022-08-09T21:07:13.798Z,1.35
2022-08-09T21:10:17.813Z,1.25
2022-08-09T21:13:21.683Z,1.77
2022-08-09T21:16:28.266Z,1.37
2022-08-09T21:20:17.335Z,1.52
2022-08-09T21:22:56.343Z,1.50
2022-08-09T21:26:00.276Z,1.60
2022-08-09T21:29:02.903Z,1.85
2022-08-09T21:32:18.743Z,1.80
2022-08-09T21:35:22.026Z,1.67
2022-08-09T21:38:31.183Z,1.92
2022-08-09T21:42:04.301Z,2.05
2022-08-09T21:44:57.731Z,1.80
2022-08-09T21:48:00.323Z,1.40
2022-08-09T21:51:03.420Z,1.35
2022-08-09T21:54:05.973Z,1.70
2022-08-09T21:57:25.494Z,1.35
2022-08-09T22:00:33.622Z,1.50
2022-08-09T22:03:36.679Z,1.10
2022-08-09T22:06:59.008Z,1.62
2022-08-09T22:10:06.901Z,1.65
2022-08-09T22:13:11.510Z,1.58
2022-08-09T22:16:14.895Z,1.60
2022-08-09T22:19:23.952Z,1.40
2022-08-09T22:22:40.819Z,1.60
2022-08-09T22:26:07.135Z,1.70
2022-08-09T22:29:09.247Z,1.40
2022-08-09T22:32:20.024Z,1.50
2022-08-09T22:36:01.897Z,1.40
2022-08-09T22:38:54.925Z,1.48
2022-08-09T22:41:57.852Z,1.90
2022-08-09T22:48:18.405Z,1.40
2022-08-09T22:48:35.879Z,1.80
2022-08-09T22:51:49.185Z,1.73
2022-08-09T22:54:52.198Z,1.42
2022-08-09T22:57:59.973Z,1.70
2022-08-09T23:01:05.657Z,1.48
2022-08-09T23:04:08.553Z,1.40
2022-08-09T23:08:21.237Z,1.53
2022-08-09T23:10:53.586Z,1.67
2022-08-09T23:13:56.438Z,1.50
2022-08-09T23:16:58.965Z,1.50
2022-08-09T23:20:07.882Z,1.30
2022-08-09T23:23:10.925Z,1.93
2022-08-09T23:26:13.730Z,1.80
2022-08-09T23:29:17.894Z,1.80
2022-08-09T23:32:20.757Z,1.70
2022-08-09T23:35:23.500Z,1.95
2022-08-09T23:38:26.519Z,1.37
2022-08-09T23:41:29.806Z,1.58
2022-08-09T23:44:32.859Z,1.80
2022-08-09T23:47:35.378Z,1.73
2022-08-09T23:50:38.236Z,1.50
2022-08-09T23:53:40.732Z,1.87
2022-08-09T23:56:54.898Z,1.80
